createdAt,value
2022-11-17T00:00:49.644Z,9.78
2022-11-17T00:01:51.248Z,9.78
2022-11-17T00:02:53.055Z,9.88
2022-11-17T00:03:54.779Z,10.06
2022-11-17T00:04:56.333Z,9.87
2022-11-17T00:06:02.222Z,9.92
2022-11-17T00:07:03.902Z,9.65
2022-11-17T00:08:05.641Z,9.99
2022-11-17T00:09:17.465Z,9.82
2022-11-17T00:10:19.547Z,9.85
2022-11-17T00:11:21.329Z,9.84
2022-11-17T00:12:42.008Z,9.78
2022-11-17T00:14:02.218Z,9.64
2022-11-17T00:15:04.109Z,9.75
2022-11-17T00:16:06.054Z,9.98
2022-11-17T00:17:11.030Z,10.03
2022-11-17T00:18:31.443Z,9.84
2022-11-17T00:19:57.366Z,10.10
2022-11-17T00:21:17.615Z,9.86
2022-11-17T00:22:19.857Z,9.49
2022-11-17T00:23:21.524Z,9.77
2022-11-17T00:24:24.173Z,9.94
2022-11-17T00:25:27.903Z,9.95
2022-11-17T00:26:34.590Z,9.06
2022-11-17T00:27:36.411Z,9.60
2022-11-17T00:28:38.226Z,9.49
2022-11-17T00:29:39.928Z,9.65
2022-11-17T00:31:00.417Z,9.55
2022-11-17T00:32:20.627Z,10.08
2022-11-17T00:33:40.914Z,9.50
2022-11-17T00:34:42.703Z,9.71
2022-11-17T00:35:46.002Z,9.58
2022-11-17T00:36:48.694Z,10.07
2022-11-17T00:38:08.799Z,9.62
2022-11-17T00:39:11.737Z,10.06
2022-11-17T00:40:14.025Z,10.13
2022-11-17T00:41:15.783Z,9.84
2022-11-17T00:42:17.432Z,9.42
2022-11-17T00:43:19.066Z,9.97
2022-11-17T00:44:21.056Z,9.82
2022-11-17T00:45:22.666Z,9.98
2022-11-17T00:46:24.242Z,9.91
2022-11-17T00:47:25.860Z,10.04
2022-11-17T00:48:27.522Z,9.72
2022-11-17T00:49:29.608Z,10.08
2022-11-17T00:50:33.738Z,9.92
2022-11-17T00:51:36.231Z,10.21
2022-11-17T00:52:37.889Z,9.63
2022-11-17T00:53:39.469Z,10.01
2022-11-17T00:54:41.086Z,9.74
2022-11-17T00:55:42.953Z,9.79
2022-11-17T00:56:44.820Z,10.14
2022-11-17T00:57:46.457Z,9.80
2022-11-17T00:58:48.148Z,9.92
2022-11-17T00:59:49.748Z,9.65
2022-11-17T01:00:51.505Z,10.02
2022-11-17T01:01:53.352Z,10.13
2022-11-17T01:02:57.175Z,9.75
2022-11-17T01:04:05.408Z,9.65
2022-11-17T01:05:07.299Z,10.11
2022-11-17T01:06:11.656Z,9.62
2022-11-17T01:07:13.303Z,9.83
2022-11-17T01:08:14.899Z,9.92
2022-11-17T01:09:19.775Z,9.86
2022-11-17T01:10:21.302Z,9.92
2022-11-17T01:11:22.962Z,10.17
2022-11-17T01:12:24.614Z,9.80
2022-11-17T01:13:26.178Z,10.11
2022-11-17T01:14:31.099Z,10.11
2022-11-17T01:15:34.146Z,9.50
2022-11-17T01:16:35.794Z,9.77
2022-11-17T01:17:37.526Z,9.74
2022-11-17T01:18:39.879Z,9.98
2022-11-17T01:19:41.433Z,9.92
2022-11-17T01:20:43.243Z,9.73
2022-11-17T01:21:45.363Z,9.95
2022-11-17T01:22:46.896Z,10.22
2022-11-17T01:23:50.678Z,9.85
2022-11-17T01:24:52.212Z,10.12
2022-11-17T01:25:53.879Z,10.00
2022-11-17T01:26:55.841Z,10.44
2022-11-17T01:27:57.444Z,10.33
2022-11-17T01:29:00.656Z,10.12
2022-11-17T01:30:02.408Z,10.28
2022-11-17T01:31:11.983Z,10.47
2022-11-17T01:32:13.660Z,10.39
2022-11-17T01:33:15.346Z,10.17
2022-11-17T01:34:17.128Z,10.17
2022-11-17T01:35:20.942Z,10.07
2022-11-17T01:36:25.475Z,10.47
2022-11-17T01:37:27.716Z,10.50
2022-11-17T01:38:29.965Z,10.47
2022-11-17T01:39:32.178Z,10.66
2022-11-17T01:40:36.543Z,10.22
2022-11-17T01:41:38.849Z,10.46
2022-11-17T01:42:40.869Z,10.53
2022-11-17T01:43:46.090Z,10.79
2022-11-17T01:45:16.718Z,10.65
2022-11-17T01:46:30.895Z,10.88
2022-11-17T01:47:50.518Z,10.99
2022-11-17T01:48:55.925Z,10.83
2022-11-17T01:50:22.888Z,10.96
2022-11-17T01:51:25.296Z,10.79
2022-11-17T01:52:29.360Z,10.72
2022-11-17T01:53:33.863Z,10.62
2022-11-17T01:54:40.486Z,10.60
2022-11-17T01:55:46.906Z,10.55
2022-11-17T01:56:54.671Z,10.71
2022-11-17T01:58:21.495Z,10.94
2022-11-17T01:59:34.596Z,11.07
2022-11-17T02:00:36.265Z,11.26
2022-11-17T02:01:56.059Z,11.02
2022-11-17T02:02:59.001Z,11.16
2022-11-17T02:04:01.128Z,10.94
2022-11-17T02:05:28.560Z,11.37
2022-11-17T02:06:35.337Z,10.88
2022-11-17T02:07:39.403Z,11.35
2022-11-17T02:08:45.511Z,11.18
2022-11-17T02:09:47.711Z,11.18
2022-11-17T02:10:51.953Z,11.26
2022-11-17T02:11:57.927Z,11.13
2022-11-17T02:13:01.515Z,11.27
2022-11-17T02:14:06.283Z,11.13
2022-11-17T02:15:09.042Z,11.16
2022-11-17T02:16:12.713Z,10.61
2022-11-17T02:17:14.757Z,11.26
2022-11-17T02:18:17.609Z,11.07
2022-11-17T02:19:22.369Z,11.36
2022-11-17T02:21:01.421Z,11.60
2022-11-17T02:22:09.439Z,11.63
2022-11-17T02:23:28.943Z,11.81
2022-11-17T02:25:04.120Z,11.84
2022-11-17T02:26:39.031Z,11.71
2022-11-17T02:27:55.483Z,11.90
2022-11-17T02:29:09.646Z,11.65
2022-11-17T02:30:15.616Z,11.93
2022-11-17T02:31:51.335Z,11.93
2022-11-17T02:33:08.875Z,11.97
2022-11-17T02:34:40.847Z,12.14
2022-11-17T02:36:15.222Z,12.01
2022-11-17T02:37:36.187Z,12.23
2022-11-17T02:39:20.700Z,12.19
2022-11-17T02:40:44.027Z,11.72
2022-11-17T02:42:43.652Z,11.90
2022-11-17T02:44:05.900Z,11.78
2022-11-17T02:45:11.376Z,11.79
2022-11-17T02:46:19.358Z,11.27
2022-11-17T02:47:28.800Z,11.39
2022-11-17T02:48:40.113Z,11.53
2022-11-17T02:49:47.772Z,11.59
2022-11-17T02:50:50.972Z,11.55
2022-11-17T02:51:56.381Z,11.13
2022-11-17T02:52:57.963Z,11.08
2022-11-17T02:54:00.180Z,10.84
2022-11-17T02:55:08.807Z,10.96
2022-11-17T02:56:11.182Z,11.29
2022-11-17T02:57:29.838Z,10.99
2022-11-17T02:58:31.468Z,10.90
2022-11-17T02:59:43.382Z,10.83
2022-11-17T03:01:03.604Z,11.02
2022-11-17T03:02:34.426Z,11.00
2022-11-17T03:03:53.034Z,11.03
2022-11-17T03:05:09.011Z,11.02
2022-11-17T03:06:23.505Z,10.89
2022-11-17T03:07:36.937Z,10.88
2022-11-17T03:08:50.098Z,10.54
2022-11-17T03:10:10.373Z,10.79
2022-11-17T03:11:13.314Z,10.18
2022-11-17T03:12:22.631Z,10.46
2022-11-17T03:13:26.457Z,10.86
2022-11-17T03:14:49.776Z,10.53
2022-11-17T03:16:02.577Z,10.88
2022-11-17T03:17:11.223Z,10.64
2022-11-17T03:18:44.769Z,10.89
2022-11-17T03:19:55.860Z,10.91
2022-11-17T03:21:15.110Z,10.81
2022-11-17T03:22:28.129Z,10.33
2022-11-17T03:23:41.099Z,10.55
2022-11-17T03:24:51.200Z,10.79
2022-11-17T03:25:57.973Z,10.30
2022-11-17T03:27:23.912Z,10.40
2022-11-17T03:28:32.779Z,10.23
2022-11-17T03:29:37.429Z,10.57
2022-11-17T03:30:42.975Z,9.99
2022-11-17T03:31:47.453Z,10.31
2022-11-17T03:32:54.068Z,10.36
2022-11-17T03:33:56.837Z,9.94
2022-11-17T03:35:06.799Z,10.26
2022-11-17T03:36:16.056Z,10.20
2022-11-17T03:37:21.796Z,9.90
2022-11-17T03:38:27.841Z,9.98
2022-11-17T03:39:36.883Z,10.17
2022-11-17T03:40:43.039Z,9.92
2022-11-17T03:41:48.461Z,10.07
2022-11-17T03:42:54.036Z,10.09
2022-11-17T03:43:57.705Z,10.10
2022-11-17T03:45:22.039Z,10.19
2022-11-17T03:46:27.271Z,9.82
2022-11-17T03:47:32.043Z,9.87
2022-11-17T03:48:48.753Z,9.99
2022-11-17T03:49:56.303Z,10.17
2022-11-17T03:51:16.600Z,10.20
2022-11-17T03:52:20.433Z,10.14
2022-11-17T03:53:23.111Z,9.79
2022-11-17T03:54:25.025Z,9.68
2022-11-17T03:55:36.901Z,9.78
2022-11-17T03:56:51.420Z,10.08
2022-11-17T03:58:05.500Z,9.87
2022-11-17T03:59:18.644Z,9.89
2022-11-17T04:00:20.644Z,9.87
2022-11-17T04:01:25.729Z,10.11
2022-11-17T04:02:28.410Z,9.70
2022-11-17T04:03:34.515Z,9.67
2022-11-17T04:04:55.071Z,10.14
2022-11-17T04:06:00.531Z,9.94
2022-11-17T04:07:02.466Z,10.07
2022-11-17T04:08:04.607Z,9.84
2022-11-17T04:09:07.481Z,9.87
2022-11-17T04:10:11.920Z,10.12
2022-11-17T04:11:32.580Z,9.90
2022-11-17T04:12:53.362Z,9.94
2022-11-17T04:14:13.370Z,9.88
2022-11-17T04:15:34.167Z,9.79
2022-11-17T04:16:36.325Z,10.09
2022-11-17T04:17:38.058Z,9.82
2022-11-17T04:18:39.642Z,10.08
2022-11-17T04:19:41.321Z,9.87
2022-11-17T04:20:43.249Z,9.94
2022-11-17T04:21:47.531Z,9.65
2022-11-17T04:23:07.446Z,9.77
2022-11-17T04:24:09.263Z,9.99
2022-11-17T04:25:31.008Z,9.97
2022-11-17T04:26:51.279Z,9.92
2022-11-17T04:28:11.474Z,9.92
2022-11-17T04:29:13.135Z,9.96
2022-11-17T04:30:14.920Z,9.95
2022-11-17T04:31:24.087Z,10.08
2022-11-17T04:32:25.710Z,10.15
2022-11-17T04:33:27.385Z,10.04
2022-11-17T04:34:29.083Z,10.03
2022-11-17T04:35:31.068Z,10.03
2022-11-17T04:36:36.467Z,9.92
2022-11-17T04:37:38.308Z,10.04
2022-11-17T04:38:47.954Z,9.73
2022-11-17T04:39:49.540Z,9.80
2022-11-17T04:41:10.198Z,9.78
2022-11-17T04:42:14.608Z,9.74
2022-11-17T04:43:16.485Z,9.78
2022-11-17T04:44:18.990Z,9.96
2022-11-17T04:45:20.523Z,9.96
2022-11-17T04:46:23.647Z,9.95
2022-11-17T04:47:28.057Z,9.80
2022-11-17T04:48:29.694Z,9.79
2022-11-17T04:49:32.178Z,9.56
2022-11-17T04:50:34.072Z,9.62
2022-11-17T04:51:36.695Z,9.70
2022-11-17T04:52:43.161Z,9.77
2022-11-17T04:53:45.291Z,9.61
2022-11-17T04:54:46.905Z,9.65
2022-11-17T04:55:48.493Z,9.71
2022-11-17T04:56:50.574Z,9.76
2022-11-17T04:57:52.249Z,9.76
2022-11-17T04:58:54.489Z,9.79
2022-11-17T04:59:56.084Z,9.93
2022-11-17T05:01:12.192Z,9.92
2022-11-17T05:02:13.792Z,9.84
2022-11-17T05:03:15.505Z,10.08
2022-11-17T05:04:38.871Z,10.09
2022-11-17T05:05:40.591Z,9.92
2022-11-17T05:06:44.950Z,9.87
2022-11-17T05:07:46.467Z,9.82
2022-11-17T05:08:48.210Z,9.70
2022-11-17T05:09:49.833Z,10.05
2022-11-17T05:11:09.981Z,10.04
2022-11-17T05:12:44.235Z,9.88
2022-11-17T05:13:45.847Z,9.63
2022-11-17T05:14:49.180Z,10.03
2022-11-17T05:16:16.115Z,10.14
2022-11-17T05:17:18.049Z,10.20
2022-11-17T05:18:19.780Z,9.91
2022-11-17T05:19:24.017Z,9.96
2022-11-17T05:20:25.597Z,9.87
2022-11-17T05:21:27.141Z,10.07
2022-11-17T05:22:47.783Z,10.13
2022-11-17T05:23:55.411Z,10.07
2022-11-17T05:24:57.439Z,9.92
2022-11-17T05:25:58.979Z,10.07
2022-11-17T05:27:00.576Z,9.73
2022-11-17T05:28:02.101Z,9.96
2022-11-17T05:29:05.836Z,9.98
2022-11-17T05:30:09.061Z,10.15
2022-11-17T05:31:10.958Z,9.95
2022-11-17T05:32:12.575Z,10.00
2022-11-17T05:33:16.672Z,10.14
2022-11-17T05:34:18.317Z,10.46
2022-11-17T05:35:19.997Z,10.10
2022-11-17T05:36:23.035Z,10.84
2022-11-17T05:37:26.944Z,11.10
2022-11-17T05:38:28.588Z,11.19
2022-11-17T05:39:30.164Z,11.16
2022-11-17T05:40:31.743Z,11.44
2022-11-17T05:41:33.845Z,11.32
2022-11-17T05:42:38.513Z,11.50
2022-11-17T05:43:40.341Z,11.41
2022-11-17T05:44:45.631Z,11.58
2022-11-17T05:45:49.650Z,11.49
2022-11-17T05:46:51.333Z,11.41
2022-11-17T05:47:53.225Z,11.60
2022-11-17T05:48:55.156Z,10.96
2022-11-17T05:49:56.835Z,11.38
2022-11-17T05:50:58.442Z,11.60
2022-11-17T05:52:00.226Z,11.80
2022-11-17T05:53:04.812Z,11.88
2022-11-17T05:54:06.444Z,11.89
2022-11-17T05:55:08.466Z,11.99
2022-11-17T05:56:28.518Z,12.12
2022-11-17T05:57:33.852Z,11.85
2022-11-17T05:58:39.544Z,11.53
2022-11-17T05:59:46.417Z,11.60
2022-11-17T06:00:58.383Z,11.44
2022-11-17T06:02:15.089Z,11.69
2022-11-17T06:03:25.190Z,11.29
2022-11-17T06:04:26.996Z,11.11
2022-11-17T06:05:31.125Z,10.75
2022-11-17T06:06:37.343Z,11.44
2022-11-17T06:07:40.792Z,11.16
2022-11-17T06:08:42.970Z,11.38
2022-11-17T06:09:46.082Z,11.06
2022-11-17T06:10:47.761Z,11.16
2022-11-17T06:11:49.358Z,11.16
2022-11-17T06:12:51.069Z,11.05
2022-11-17T06:13:52.600Z,11.12
2022-11-17T06:14:54.378Z,11.01
2022-11-17T06:15:59.594Z,11.30
2022-11-17T06:17:06.689Z,11.49
2022-11-17T06:18:14.059Z,11.69
2022-11-17T06:19:23.622Z,11.96
2022-11-17T06:20:30.212Z,11.86
2022-11-17T06:21:49.466Z,11.76
2022-11-17T06:22:57.957Z,11.78
2022-11-17T06:24:00.265Z,11.79
2022-11-17T06:25:04.599Z,12.04
2022-11-17T06:26:11.191Z,12.33
2022-11-17T06:27:17.984Z,12.35
2022-11-17T06:28:22.468Z,12.41
2022-11-17T06:29:24.613Z,12.33
2022-11-17T06:30:27.245Z,12.25
2022-11-17T06:31:28.917Z,12.45
2022-11-17T06:32:32.865Z,12.47
2022-11-17T06:33:38.538Z,12.35
2022-11-17T06:34:41.163Z,11.87
2022-11-17T06:35:45.425Z,12.43
2022-11-17T06:36:49.964Z,12.12
2022-11-17T06:37:51.670Z,12.34
2022-11-17T06:38:53.226Z,12.40
2022-11-17T06:39:57.150Z,12.31
2022-11-17T06:40:58.674Z,12.31
2022-11-17T06:42:00.244Z,12.37
2022-11-17T06:43:08.321Z,12.17
2022-11-17T06:44:12.016Z,11.98
2022-11-17T06:45:16.373Z,11.89
2022-11-17T06:46:19.178Z,11.60
2022-11-17T06:47:22.330Z,11.53
2022-11-17T06:48:27.131Z,11.55
2022-11-17T06:49:31.724Z,11.74
2022-11-17T06:50:53.645Z,12.10
2022-11-17T06:51:58.368Z,11.41
2022-11-17T06:53:02.289Z,12.21
2022-11-17T06:54:09.052Z,11.72
2022-11-17T06:55:10.913Z,11.96
2022-11-17T06:56:13.781Z,12.47
2022-11-17T06:57:15.469Z,12.63
2022-11-17T06:58:19.853Z,12.85
2022-11-17T06:59:24.958Z,12.26
2022-11-17T07:00:27.953Z,12.77
2022-11-17T07:01:32.082Z,13.06
2022-11-17T07:02:37.303Z,13.01
2022-11-17T07:03:41.681Z,12.97
2022-11-17T07:04:46.500Z,13.33
2022-11-17T07:05:50.768Z,13.16
2022-11-17T07:06:55.414Z,12.45
2022-11-17T07:08:04.792Z,12.48
2022-11-17T07:09:07.124Z,12.51
2022-11-17T07:10:12.023Z,12.57
2022-11-17T07:11:17.486Z,13.25
2022-11-17T07:12:19.604Z,13.57
2022-11-17T07:13:25.082Z,13.46
2022-11-17T07:14:26.804Z,13.65
2022-11-17T07:15:32.518Z,13.82
2022-11-17T07:16:34.165Z,13.63
2022-11-17T07:17:35.877Z,13.66
2022-11-17T07:18:38.832Z,13.85
2022-11-17T07:19:41.051Z,13.86
2022-11-17T07:20:43.032Z,13.93
2022-11-17T07:21:44.674Z,13.76
2022-11-17T07:22:47.197Z,14.16
2022-11-17T07:23:49.884Z,14.13
2022-11-17T07:24:53.049Z,13.85
2022-11-17T07:25:54.959Z,14.17
2022-11-17T07:26:56.565Z,14.13
2022-11-17T07:27:59.603Z,13.90
2022-11-17T07:29:04.336Z,14.14
2022-11-17T07:30:07.462Z,14.30
2022-11-17T07:31:09.679Z,13.64
2022-11-17T07:32:13.837Z,13.87
2022-11-17T07:33:15.654Z,14.14
2022-11-17T07:34:17.247Z,14.35
2022-11-17T07:35:21.120Z,14.21
2022-11-17T07:36:22.956Z,14.20
2022-11-17T07:37:24.551Z,14.10
2022-11-17T07:38:26.174Z,14.04
2022-11-17T07:39:27.821Z,13.71
2022-11-17T07:40:31.102Z,14.29
2022-11-17T07:41:36.051Z,14.09
2022-11-17T07:42:37.843Z,13.63
2022-11-17T07:43:40.410Z,14.01
2022-11-17T07:44:42.292Z,13.93
2022-11-17T07:45:46.950Z,14.22
2022-11-17T07:46:51.371Z,14.34
2022-11-17T07:47:57.506Z,13.74
2022-11-17T07:48:59.281Z,14.16
2022-11-17T07:50:04.328Z,14.39
2022-11-17T07:51:08.561Z,14.06
2022-11-17T07:52:10.534Z,14.21
2022-11-17T07:53:19.264Z,13.95
2022-11-17T07:54:28.206Z,13.88
2022-11-17T07:55:32.767Z,13.99
2022-11-17T07:56:37.742Z,14.01
2022-11-17T07:57:42.617Z,13.80
2022-11-17T07:58:44.452Z,13.84
2022-11-17T07:59:46.275Z,13.82
2022-11-17T08:00:50.824Z,14.06
2022-11-17T08:01:52.930Z,13.62
2022-11-17T08:02:55.331Z,14.05
2022-11-17T08:03:57.995Z,13.82
2022-11-17T08:05:02.329Z,13.85
2022-11-17T08:06:07.962Z,14.31
2022-11-17T08:07:19.449Z,14.19
2022-11-17T08:08:32.642Z,13.89
2022-11-17T08:09:40.365Z,14.03
2022-11-17T08:10:43.234Z,13.90
2022-11-17T08:11:45.104Z,13.90
2022-11-17T08:12:55.963Z,14.06
2022-11-17T08:13:58.847Z,13.93
2022-11-17T08:15:03.806Z,13.98
2022-11-17T08:16:06.870Z,13.93
2022-11-17T08:17:09.077Z,14.04
2022-11-17T08:18:14.525Z,13.38
2022-11-17T08:19:18.616Z,13.75
2022-11-17T08:20:27.775Z,13.90
2022-11-17T08:21:29.527Z,13.47
2022-11-17T08:22:34.055Z,14.15
2022-11-17T08:23:38.811Z,13.93
2022-11-17T08:24:54.624Z,13.72
2022-11-17T08:26:04.763Z,13.76
2022-11-17T08:27:28.243Z,14.33
2022-11-17T08:28:31.844Z,13.89
2022-11-17T08:29:33.793Z,13.80
2022-11-17T08:30:40.199Z,13.79
2022-11-17T08:31:48.377Z,13.64
2022-11-17T08:33:07.939Z,13.96
2022-11-17T08:34:17.625Z,13.69
2022-11-17T08:35:22.384Z,13.51
2022-11-17T08:36:26.480Z,14.31
2022-11-17T08:37:31.806Z,13.55
2022-11-17T08:38:36.979Z,13.78
2022-11-17T08:39:46.399Z,14.13
2022-11-17T08:40:49.470Z,14.23
2022-11-17T08:41:54.295Z,13.41
2022-11-17T08:43:00.673Z,14.05
2022-11-17T08:44:03.543Z,13.91
2022-11-17T08:45:06.533Z,13.81
2022-11-17T08:46:12.835Z,13.98
2022-11-17T08:47:16.942Z,13.85
2022-11-17T08:48:19.216Z,13.65
2022-11-17T08:49:26.772Z,13.25
2022-11-17T08:50:33.608Z,13.77
2022-11-17T08:51:37.907Z,13.36
2022-11-17T08:52:42.008Z,13.45
2022-11-17T08:53:46.892Z,14.08
2022-11-17T08:55:00.130Z,13.49
2022-11-17T08:56:09.413Z,13.49
2022-11-17T08:57:14.068Z,13.78
2022-11-17T08:58:23.599Z,13.91
2022-11-17T08:59:34.696Z,13.51
2022-11-17T09:00:36.732Z,13.32
2022-11-17T09:01:40.798Z,13.90
2022-11-17T09:02:46.501Z,13.60
2022-11-17T09:03:48.927Z,13.11
2022-11-17T09:04:50.959Z,12.98
2022-11-17T09:05:55.667Z,13.37
2022-11-17T09:07:00.207Z,13.28
2022-11-17T09:08:29.661Z,13.68
2022-11-17T09:09:30.096Z,13.38
2022-11-17T09:10:32.365Z,13.89
2022-11-17T09:11:46.157Z,13.75
2022-11-17T09:12:50.845Z,12.99
2022-11-17T09:14:04.272Z,13.58
2022-11-17T09:15:09.254Z,13.23
2022-11-17T09:16:11.934Z,13.17
2022-11-17T09:17:13.710Z,13.89
2022-11-17T09:18:18.519Z,13.52
2022-11-17T09:19:20.353Z,13.66
2022-11-17T09:20:22.672Z,13.42
2022-11-17T09:21:26.336Z,14.03
2022-11-17T09:22:28.660Z,13.75
2022-11-17T09:23:31.775Z,13.74
2022-11-17T09:24:33.539Z,14.01
2022-11-17T09:25:36.691Z,13.84
2022-11-17T09:26:41.247Z,13.54
2022-11-17T09:27:43.045Z,13.52
2022-11-17T09:28:45.279Z,13.78
2022-11-17T09:29:54.304Z,13.53
2022-11-17T09:30:55.957Z,13.72
2022-11-17T09:31:57.828Z,13.24
2022-11-17T09:32:59.440Z,13.51
2022-11-17T09:34:05.281Z,13.88
2022-11-17T09:35:09.437Z,13.79
2022-11-17T09:36:12.583Z,13.68
2022-11-17T09:37:14.320Z,13.46
2022-11-17T09:38:16.419Z,13.61
2022-11-17T09:39:18.561Z,13.98
2022-11-17T09:40:24.535Z,13.66
2022-11-17T09:41:44.914Z,13.64
2022-11-17T09:42:50.487Z,13.65
2022-11-17T09:44:03.881Z,13.94
2022-11-17T09:45:20.945Z,13.93
2022-11-17T09:46:31.990Z,13.93
2022-11-17T09:48:12.412Z,14.07
2022-11-17T09:49:37.578Z,14.12
2022-11-17T09:50:40.827Z,14.11
2022-11-17T09:51:47.822Z,13.96
2022-11-17T09:52:54.224Z,14.15
2022-11-17T09:54:12.287Z,14.13
2022-11-17T09:55:41.042Z,14.17
2022-11-17T09:56:47.586Z,13.85
2022-11-17T09:58:27.649Z,14.00
2022-11-17T09:59:35.678Z,13.69
2022-11-17T10:00:45.996Z,14.14
2022-11-17T10:01:53.764Z,14.03
2022-11-17T10:03:11.085Z,14.14
2022-11-17T10:04:38.975Z,14.53
2022-11-17T10:05:44.248Z,14.10
2022-11-17T10:06:50.521Z,14.93
2022-11-17T10:07:55.621Z,14.97
2022-11-17T10:09:15.258Z,14.93
2022-11-17T10:10:22.581Z,14.45
2022-11-17T10:11:36.608Z,14.36
2022-11-17T10:12:47.609Z,14.13
2022-11-17T10:13:50.853Z,14.26
2022-11-17T10:14:54.411Z,14.48
2022-11-17T10:16:05.546Z,13.90
2022-11-17T10:17:10.765Z,13.84
2022-11-17T10:18:17.345Z,14.28
2022-11-17T10:19:20.260Z,14.25
2022-11-17T10:20:25.263Z,14.08
2022-11-17T10:21:30.821Z,13.40
2022-11-17T10:22:37.071Z,14.17
2022-11-17T10:23:47.878Z,13.34
2022-11-17T10:24:56.729Z,13.78
2022-11-17T10:26:01.433Z,13.48
2022-11-17T10:27:19.207Z,14.04
2022-11-17T10:28:34.425Z,13.99
2022-11-17T10:29:36.029Z,13.49
2022-11-17T10:30:38.968Z,13.64
2022-11-17T10:31:46.446Z,13.56
2022-11-17T10:32:53.770Z,13.59
2022-11-17T10:33:55.673Z,12.85
2022-11-17T10:35:13.929Z,13.66
2022-11-17T10:36:32.809Z,13.55
2022-11-17T10:37:34.580Z,13.44
2022-11-17T10:38:36.461Z,13.60
2022-11-17T10:39:40.361Z,13.58
2022-11-17T10:40:41.994Z,14.00
2022-11-17T10:41:50.520Z,13.97
2022-11-17T10:43:28.990Z,14.06
2022-11-17T10:44:33.823Z,14.48
2022-11-17T10:45:35.477Z,14.63
2022-11-17T10:47:00.562Z,15.64
2022-11-17T10:48:37.692Z,15.34
2022-11-17T10:49:39.834Z,15.64
2022-11-17T10:50:55.864Z,15.89
2022-11-17T10:52:18.629Z,16.66
2022-11-17T10:53:36.884Z,16.71
2022-11-17T10:54:41.499Z,16.74
2022-11-17T10:55:44.513Z,16.90
2022-11-17T10:56:55.579Z,16.68
2022-11-17T10:58:29.413Z,16.24
2022-11-17T10:59:44.104Z,15.05
2022-11-17T11:00:54.089Z,15.52
2022-11-17T11:01:56.111Z,15.14
2022-11-17T11:03:15.901Z,14.78
2022-11-17T11:04:35.799Z,14.97
2022-11-17T11:05:37.466Z,15.07
2022-11-17T11:06:39.049Z,15.14
2022-11-17T11:07:41.194Z,14.62
2022-11-17T11:08:56.973Z,15.05
2022-11-17T11:10:17.096Z,14.85
2022-11-17T11:11:43.737Z,15.07
2022-11-17T11:12:54.193Z,14.99
2022-11-17T11:14:12.326Z,14.89
2022-11-17T11:15:24.296Z,15.13
2022-11-17T11:16:29.459Z,15.34
2022-11-17T11:17:31.194Z,15.21
2022-11-17T11:18:32.950Z,15.96
2022-11-17T11:19:34.780Z,15.91
2022-11-17T11:21:01.765Z,15.81
2022-11-17T11:22:19.843Z,15.25
2022-11-17T11:23:31.876Z,15.32
2022-11-17T11:24:58.749Z,16.10
2022-11-17T11:26:03.394Z,17.03
2022-11-17T11:27:16.277Z,17.59
2022-11-17T11:28:26.808Z,17.64
2022-11-17T11:29:59.609Z,17.46
2022-11-17T11:31:30.162Z,16.32
2022-11-17T11:33:00.210Z,16.32
2022-11-17T11:34:19.887Z,16.04
2022-11-17T11:35:45.044Z,15.26
2022-11-17T11:36:55.742Z,15.15
2022-11-17T11:38:21.776Z,15.37
2022-11-17T11:39:29.110Z,14.99
2022-11-17T11:40:39.423Z,14.72
2022-11-17T11:42:08.103Z,14.63
2022-11-17T11:43:46.612Z,14.69
2022-11-17T11:44:54.128Z,14.97
2022-11-17T11:46:01.475Z,15.02
2022-11-17T11:47:40.360Z,14.74
2022-11-17T11:48:41.993Z,14.55
2022-11-17T11:49:54.284Z,14.53
2022-11-17T11:50:58.975Z,14.47
2022-11-17T11:52:04.589Z,14.28
2022-11-17T11:53:24.496Z,14.52
2022-11-17T11:54:49.399Z,14.58
2022-11-17T11:56:15.697Z,14.44
2022-11-17T11:57:21.049Z,14.12
2022-11-17T11:58:24.714Z,14.25
2022-11-17T12:00:04.031Z,14.38
2022-11-17T12:01:09.639Z,14.08
2022-11-17T12:02:11.363Z,14.36
2022-11-17T12:03:33.753Z,14.07
2022-11-17T12:05:04.438Z,14.44
2022-11-17T12:06:41.261Z,14.19
2022-11-17T12:08:04.673Z,14.39
2022-11-17T12:09:15.583Z,14.59
2022-11-17T12:10:26.938Z,14.40
2022-11-17T12:11:47.490Z,14.27
2022-11-17T12:12:49.642Z,14.36
2022-11-17T12:13:54.286Z,14.90
2022-11-17T12:15:31.420Z,14.38
2022-11-17T12:16:36.132Z,14.57
2022-11-17T12:17:54.068Z,14.53
2022-11-17T12:18:55.832Z,14.79
2022-11-17T12:20:09.219Z,14.59
2022-11-17T12:21:13.770Z,14.33
2022-11-17T12:22:35.812Z,14.78
2022-11-17T12:23:55.489Z,14.70
2022-11-17T12:24:58.983Z,14.45
2022-11-17T12:26:02.356Z,14.76
2022-11-17T12:27:35.575Z,14.97
2022-11-17T12:28:41.076Z,14.86
2022-11-17T12:29:47.272Z,14.70
2022-11-17T12:30:51.800Z,14.63
2022-11-17T12:32:02.253Z,14.81
2022-11-17T12:33:09.060Z,15.03
2022-11-17T12:34:38.235Z,15.21
2022-11-17T12:35:40.392Z,15.38
2022-11-17T12:36:44.330Z,15.73
2022-11-17T12:37:46.237Z,15.37
2022-11-17T12:38:48.127Z,15.34
2022-11-17T12:40:04.854Z,15.48
2022-11-17T12:41:17.362Z,15.16
2022-11-17T12:42:19.049Z,15.16
2022-11-17T12:43:27.843Z,15.38
2022-11-17T12:44:37.724Z,15.35
2022-11-17T12:45:58.182Z,15.17
2022-11-17T12:47:21.633Z,14.77
2022-11-17T12:48:34.803Z,14.27
2022-11-17T12:49:58.669Z,14.65
2022-11-17T12:51:15.708Z,14.90
2022-11-17T12:52:38.548Z,14.44
2022-11-17T12:53:49.376Z,14.78
2022-11-17T12:55:13.035Z,14.92
2022-11-17T12:56:55.069Z,14.76
2022-11-17T12:58:25.580Z,14.86
2022-11-17T12:59:44.952Z,14.74
2022-11-17T13:01:08.420Z,14.72
2022-11-17T13:02:53.416Z,14.20
2022-11-17T13:04:17.975Z,13.87
2022-11-17T13:05:26.951Z,14.07
2022-11-17T13:06:36.390Z,14.29
2022-11-17T13:07:38.571Z,13.81
2022-11-17T13:08:41.083Z,13.75
2022-11-17T13:09:49.214Z,13.72
2022-11-17T13:10:51.266Z,13.56
2022-11-17T13:12:23.313Z,13.93
2022-11-17T13:13:25.112Z,13.62
2022-11-17T13:14:27.646Z,13.76
2022-11-17T13:15:29.492Z,13.38
2022-11-17T13:16:31.179Z,13.42
2022-11-17T13:17:43.705Z,13.62
2022-11-17T13:18:46.899Z,13.38
2022-11-17T13:19:58.247Z,13.23
2022-11-17T13:21:03.261Z,13.09
2022-11-17T13:22:11.108Z,13.25
2022-11-17T13:23:19.944Z,12.93
2022-11-17T13:24:33.849Z,13.16
2022-11-17T13:25:35.916Z,13.12
2022-11-17T13:26:38.048Z,12.93
2022-11-17T13:27:47.950Z,13.04
2022-11-17T13:29:08.486Z,12.95
2022-11-17T13:30:23.231Z,12.92
2022-11-17T13:31:24.843Z,12.53
2022-11-17T13:32:28.619Z,12.53
2022-11-17T13:33:34.281Z,12.55
2022-11-17T13:34:50.321Z,12.84
2022-11-17T13:36:16.637Z,12.63
2022-11-17T13:37:27.569Z,12.79
2022-11-17T13:38:29.208Z,13.01
2022-11-17T13:39:31.187Z,13.13
2022-11-17T13:40:34.884Z,12.96
2022-11-17T13:41:39.858Z,13.13
2022-11-17T13:42:42.078Z,13.36
2022-11-17T13:43:46.209Z,13.34
2022-11-17T13:44:48.606Z,12.95
2022-11-17T13:45:52.130Z,13.32
2022-11-17T13:46:53.796Z,13.22
2022-11-17T13:47:56.388Z,13.37
2022-11-17T13:49:01.133Z,13.05
2022-11-17T13:50:27.822Z,13.34
2022-11-17T13:51:42.587Z,13.00
2022-11-17T13:52:47.037Z,13.33
2022-11-17T13:54:13.280Z,13.38
2022-11-17T13:55:19.946Z,13.21
2022-11-17T13:56:26.221Z,13.20
2022-11-17T13:57:29.275Z,13.35
2022-11-17T13:58:39.300Z,13.17
2022-11-17T13:59:41.297Z,13.01
2022-11-17T14:00:53.988Z,13.43
2022-11-17T14:02:19.350Z,13.58
2022-11-17T14:03:36.243Z,13.45
2022-11-17T14:04:38.054Z,13.40
2022-11-17T14:05:55.328Z,13.52
2022-11-17T14:06:56.991Z,13.78
2022-11-17T14:08:12.480Z,13.68
2022-11-17T14:09:18.666Z,13.74
2022-11-17T14:10:20.340Z,13.91
2022-11-17T14:11:23.358Z,13.73
2022-11-17T14:12:25.000Z,13.69
2022-11-17T14:13:39.555Z,13.68
2022-11-17T14:14:44.381Z,13.60
2022-11-17T14:15:53.828Z,13.67
2022-11-17T14:16:55.882Z,13.46
2022-11-17T14:18:03.370Z,13.37
2022-11-17T14:19:24.194Z,13.87
2022-11-17T14:20:25.945Z,13.70
2022-11-17T14:21:28.314Z,13.61
2022-11-17T14:22:31.999Z,13.30
2022-11-17T14:23:34.575Z,13.34
2022-11-17T14:24:37.438Z,12.92
2022-11-17T14:25:50.217Z,12.80
2022-11-17T14:26:52.009Z,12.95
2022-11-17T14:27:54.206Z,13.20
2022-11-17T14:29:02.421Z,13.09
2022-11-17T14:30:05.533Z,12.73
2022-11-17T14:31:15.644Z,12.68
2022-11-17T14:32:20.130Z,12.56
2022-11-17T14:33:22.400Z,12.62
2022-11-17T14:34:26.817Z,12.24
2022-11-17T14:35:33.319Z,12.33
2022-11-17T14:36:37.019Z,11.95
2022-11-17T14:37:38.736Z,12.06
2022-11-17T14:38:41.388Z,11.83
2022-11-17T14:41:07.546Z,11.63
2022-11-17T14:42:11.486Z,12.12
2022-11-17T14:43:13.182Z,11.86
2022-11-17T14:44:25.472Z,11.74
2022-11-17T14:45:30.855Z,11.84